Ottawa, IL (61350)

4:05 PM CDT on September 04, 2015 (GMT -0500)
LaSalle County Government Complex | | Change Station
CLOSE
Current Station
Personal Weather Station
Location: Ottawa, IL
Elevation: 614 ft
Nearby Weather Stations

Elev 614 ft 41.37 °N, 88.83 °W | Updated 1 minute ago

Partly Cloudy
Partly Cloudy
91.5 °F
Feels Like 98 °F
N
3.0
Wind Variable Wind from WNW
Gusts 9.0 mph

Today
High -- | Low -- °F
--% Chance of Precip.
Yesterday
High -- | Low -- °F
Precip. -- in
6:24 AM 7:23 PM
Waning Gibbous, 56% visible
Pressure 29.98 in
Visibility 10.0 miles
Clouds Scattered Clouds 6000 ft
Heat Index 98 °F
Dew Point 70 °F
Humidity 50%
Rainfall 0.00 in
Snow Depth Not available.
UV 4 out of 12
Pollen 9.60 out of 12
Air Quality Not available.
Flu Activity Not available.
METAR KVYS 042055Z AUTO 00000KT 10SM SCT060 33/16 A2998 RMK AO2 T03260157
Pressure 29.98 in
Visibility 10.0 miles
Clouds Scattered Clouds 6000 ft
Heat Index 98 °F
Dew Point 70 °F
Humidity 50%
Rainfall 0.00 in
Snow Depth Not available.
UV 4 out of 12
Pollen 9.60 out of 12
Air Quality Not available.
Flu Activity Not available.
METAR KVYS 042055Z AUTO 00000KT 10SM SCT060 33/16 A2998 RMK AO2 T03260157

10-Day Weather Forecast

×

Almanac

Astronomy

Sep. 04, 2015 Rise Set
Actual Time
Civil Twilight
Nautical Twilight
Astronomical Twilight
Moon
Length of Visible Light
Length of Day
Tomorrow will be .
, % of the Moon is Illuminated

Today's Extremes

State Highs State Lows

Community

WunderPhotos

Upload Photos

1,852,290 photos uploaded!

WunderBlogs® & News

Nearby

Air Quality

  Air Quality AQ Index Pollutant
Not available.

Snow Depth

Station Depth Elevation

Earthquake Activity

City Distance Mag. Time & Date
Minimum magnitude displayed is 2.5.

Coastal Water Temperatures

Place Temperature

Stations

Nearby Weather Stations

Station Location Temp. Windchill Dew Point Humidity Wind Precip. Elev Updated Type